KNQX

Key West NAS / Boca Chica Field Airport

Key West, Florida, USA
METAR KNQX 182053Z 09006KT 10SM SCT030 BKN220 29/24 A3004 RMK AO2 SLP169 T2 SET 60001 T02940244 56020 $
Observed Flight Rules
Aug-18 @ 20:53 UTC (59 minutes ago) Visual Flight Rules
Wind Visibility Clouds
90° at 6 knots 10 miles
  • Scattered at 3,000' AGL
  • Broken at 22,000' AGL
Temperatures Readings
Current 29°C / 84°F
Dewpoint 24°C / 75°F
Humidity 74%
Altimeter 30.04" Hg
Pressure 1016.9 hPa
Elevation 2
METAR KNQX 182053Z 09006KT 10SM SCT030 BKN220 29/24 A3004 RMK AO2 SLP169 T2 SET 60001 T02940244 56020 $
Observed Flight Rules
Aug-18 @ 20:53 UTC
(59 minutes ago)
VFR
Wind Visibility
90° at 6 knots 10 miles
Clouds
  • Scattered at 3,000' AGL
  • Broken at 22,000' AGL
Temperature Dewpoint
29°C / 84°F 24°C / 75°F
Humidity Altimeter Pressure
74% 30.04" Hg 1016.9 hPa